[source: ADDS]
METAR
EDMA 231250Z 05006KT 010V120 CAVOK 19/05 Q1018 RMK ATIS KIL =
TAF
TAF EDMA 231100Z 2312/2320 08005KT CAVOK PROB30 TEMPO 2312/2318 TSRA BKN020CB =
SR / SS: 04:11 / 18:21 UTC (Referenz EDMA 2014-04-23)
Start Piloten

PostHeaderIcon Lande Informationen für Piloten!

Informationen für Piloten

Diese Seite richtet sich speziell an die fliegenden Besucher, die mit dem Flugzeug zu unserem Flugplatz kommen möchten.

Alle Angaben ohne Gewähr. Stand 01.10.2009

Bitte kontaktieren Sie immer den Flugplatz oder die entsprechenden Flugleiter!

Koordinaten:

  • Landeplatzbezugspunkt 48° 38' 11'' N / 10° 12' 93'' E   | 1,35 NM NW Giengen
  • ELEV 1695 ft MSL (516,5 m NN)
  • GAFOR 62
  • RWY 17 / 35 (ASPH 480 m * 15 m)
  • Platzrunde W 2600 ft MSL
  • FREQ 122,350 (GIENGEN INFO)
  • NAV 087° / 38 NM FROM 'TGO' DVORTAC (112,50 / Ch 72)

180° / 30 NM FROM 'DKB' DVORTAC (117,80 / Ch 125)

  • TANK Avgas 100 LL, Super ROZ 95
  • OIL Öl D80 5,50€ / Liter, Öl für Rotax 14,00€ / Liter
  • ZOLL Nein
  • PPR! 07322 / 932969 oder 0174 / 3201609
  • max. Abfluggewicht (MPW) <= 2,5 t (<= 5,7 t PPR)
  • TEL C: 07322 / 7278
  • AIS: 089 / 9780350 oder 9780351 oder 9780352
  • MET: 0711 / 9552222

Airport Informationen [externer Link]

Flugleiter (unter der Woche):

Gerd Schneider 07322/932969

Ute Cohnen 07321 /45356

Helmut Kleber 07322/3329